Time;durP1;ratioP1;P1;durP2;ratioP2;P2;SDS_P1;SDS_P2;PMS_P1;PMS_P2;Temp;Humidity;BMP_temperature;BMP_pressure;BME280_temperature;BME280_humidity;BME280_pressure;Samples;Min_cycle;Max_cycle;Signal;HPM_P1;HPM_P2
2022/08/19 00:01:57;;;;;;;12.50;11.40;;;;;;;23.11;58.81;99717.66;10401292;28;20121;-74
2022/08/19 00:07:00;;;;;;;12.30;11.20;;;;;;;22.93;59.71;99735.47;10378852;28;20045;-74
2022/08/19 00:12:02;;;;;;;13.38;12.13;;;;;;;22.88;60.37;99735.31;10391387;28;20685;-74
2022/08/19 00:17:06;;;;;;;13.38;12.20;;;;;;;22.97;59.75;99727.75;10387614;28;20128;-74
2022/08/19 00:22:08;;;;;;;13.23;11.82;;;;;;;23.00;59.99;99715.59;10386062;28;20067;-74
2022/08/19 00:27:09;;;;;;;12.85;11.55;;;;;;;22.93;60.40;99711.06;10386950;28;20091;-75
2022/08/19 00:32:27;;;;;;;13.32;12.07;;;;;;;22.92;58.91;99701.28;10375609;28;20041;-74
2022/08/19 00:37:30;;;;;;;13.43;12.23;;;;;;;22.74;59.72;99702.00;10387978;28;20045;-74
2022/08/19 00:42:31;;;;;;;13.13;11.93;;;;;;;22.81;59.63;99707.38;10382715;28;20067;-74
2022/08/19 00:47:33;;;;;;;14.60;13.20;;;;;;;22.76;60.84;99694.47;10389176;28;20431;-73
2022/08/19 00:52:44;;;;;;;13.73;12.30;;;;;;;22.81;61.13;99690.28;10383047;28;20095;-74
2022/08/19 00:57:56;;;;;;;13.25;11.98;;;;;;;22.83;60.38;99694.41;10388294;28;20071;-74
2022/08/19 01:02:57;;;;;;;14.00;12.60;;;;;;;22.83;60.38;99672.72;10392694;28;20044;-74
2022/08/19 01:08:02;;;;;;;13.55;12.27;;;;;;;22.76;60.58;99667.34;10387037;28;20059;-74
2022/08/19 01:13:04;;;;;;;13.30;12.00;;;;;;;22.83;60.44;99672.72;10398533;28;20458;-74
2022/08/19 01:18:09;;;;;;;12.70;11.47;;;;;;;22.92;60.71;99676.84;10392636;28;20182;-74
2022/08/19 01:23:12;;;;;;;11.95;10.85;;;;;;;23.00;59.36;99670.31;10396511;28;20113;-74
2022/08/19 01:28:25;;;;;;;12.75;11.45;;;;;;;22.98;59.71;99669.69;10399612;28;20049;-75
2022/08/19 01:33:34;;;;;;;11.95;10.95;;;;;;;22.98;60.28;99671.59;10378826;28;20152;-74
2022/08/19 01:38:39;;;;;;;11.45;10.35;;;;;;;22.97;59.58;99662.63;10383474;28;20055;-73
2022/08/19 01:43:44;;;;;;;12.23;11.13;;;;;;;22.95;60.03;99665.56;10395399;28;20048;-74
2022/08/19 01:49:07;;;;;;;12.38;11.25;;;;;;;23.00;59.54;99669.47;10379799;28;20084;-73
2022/08/19 01:54:11;;;;;;;11.18;10.07;;;;;;;23.00;59.56;99667.59;10395819;28;20055;-74
2022/08/19 01:59:16;;;;;;;11.90;10.80;;;;;;;22.98;59.42;99668.88;10381774;28;20053;-75
2022/08/19 02:04:18;;;;;;;10.93;9.95;;;;;;;22.95;60.09;99670.97;10391773;28;20128;-73
2022/08/19 02:09:19;;;;;;;11.32;10.32;;;;;;;22.94;60.41;99666.59;10383240;28;20045;-73
2022/08/19 02:14:21;;;;;;;11.20;10.25;;;;;;;22.96;59.79;99666.38;10389273;28;21205;-73
2022/08/19 02:19:22;;;;;;;10.90;9.80;;;;;;;22.81;60.21;99671.28;10391930;28;20047;-73
2022/08/19 02:24:23;;;;;;;10.88;9.98;;;;;;;;;;10393992;28;20264;-73
2022/08/19 02:29:25;;;;;;;10.93;9.95;;;;;;;22.77;60.43;99689.84;10380614;28;20133;-74
2022/08/19 02:34:26;;;;;;;10.23;9.25;;;;;;;22.85;60.78;99705.06;10382475;28;20041;-74
2022/08/19 02:39:27;;;;;;;10.73;9.73;;;;;;;22.88;60.93;99696.47;10387799;28;20083;-73
2022/08/19 02:44:29;;;;;;;11.57;10.05;;;;;;;22.86;60.52;99699.41;10394043;28;20041;-73
2022/08/19 02:49:32;;;;;;;;;;;;;;;22.86;60.38;99699.41;10379738;28;20053;-75
2022/08/19 02:54:35;;;;;;;9.60;8.70;;;;;;;22.76;61.24;99694.47;10386688;28;20870;-73
2022/08/19 02:59:36;;;;;;;10.30;9.23;;;;;;;22.89;61.12;99704.41;10387335;28;20041;-74
2022/08/19 03:04:38;;;;;;;9.38;8.27;;;;;;;22.87;60.63;99708.41;10389257;28;20045;-73
2022/08/19 03:09:39;;;;;;;10.68;9.02;;;;;;;22.89;61.17;99701.69;10388989;28;20061;-73
2022/08/19 03:14:41;;;;;;;10.35;9.35;;;;;;;22.85;61.77;99695.03;10388320;28;20251;-74
2022/08/19 03:19:43;;;;;;;10.15;8.45;;;;;;;22.82;61.23;99703.63;10374562;28;20466;-73
2022/08/19 03:24:44;;;;;;;9.32;8.43;;;;;;;22.77;62.16;99719.72;10388915;28;20084;-73
2022/08/19 03:29:45;;;;;;;10.05;8.88;;;;;;;22.74;61.76;99714.72;10385788;28;20053;-73
2022/08/19 03:34:47;;;;;;;9.98;8.90;;;;;;;22.80;62.14;99721.16;10387926;28;20045;-73
2022/08/19 03:39:48;;;;;;;9.63;8.40;;;;;;;22.82;62.56;99722.63;10392281;28;20049;-74
2022/08/19 03:44:50;;;;;;;9.73;8.88;;;;;;;22.77;61.95;99708.84;10392190;28;20056;-74
2022/08/19 03:49:51;;;;;;;10.15;9.15;;;;;;;22.78;61.97;99715.94;10389663;28;20136;-74
2022/08/19 03:54:53;;;;;;;10.98;8.98;;;;;;;22.68;62.08;99716.41;10396593;28;20066;-71
2022/08/19 03:59:54;;;;;;;8.98;8.07;;;;;;;22.58;62.29;99716.88;10401276;28;20055;-73
2022/08/19 04:05:05;;;;;;;10.10;9.10;;;;;;;22.60;62.64;99722.91;10391490;28;20057;-75
2022/08/19 04:10:06;;;;;;;13.98;9.77;;;;;;;22.63;62.46;99716.22;10387195;28;20124;-74
2022/08/19 04:15:10;;;;;;;9.68;8.68;;;;;;;22.55;63.12;99719.22;10388534;28;20060;-73
2022/08/19 04:20:12;;;;;;;9.73;8.82;;;;;;;22.57;62.87;99717.91;10387709;28;20053;-74
2022/08/19 04:25:13;;;;;;;9.60;8.65;;;;;;;22.64;62.24;99722.47;10387970;28;20589;-74
2022/08/19 04:30:15;;;;;;;9.25;8.45;;;;;;;22.62;63.46;99724.59;10372114;28;20049;-75
2022/08/19 04:35:16;;;;;;;11.32;8.75;;;;;;;22.63;63.95;99721.66;10386331;28;20160;-73
2022/08/19 04:45:45;;;;;;;9.80;9.00;;;;;;;22.57;63.17;99728.78;10386687;28;20775;-73
2022/08/19 04:50:48;;;;;;;9.48;8.57;;;;;;;22.50;64.05;99719.81;10394791;28;20128;-74
2022/08/19 04:55:49;;;;;;;9.60;8.60;;;;;;;22.55;63.39;99736.28;10393105;28;20049;-73
2022/08/19 05:00:50;;;;;;;10.00;9.05;;;;;;;22.48;63.83;99738.19;10373602;28;20136;-73
2022/08/19 05:05:52;;;;;;;9.43;8.50;;;;;;;22.50;63.17;99741.50;10382233;28;21165;-75
2022/08/19 05:10:54;;;;;;;9.88;8.88;;;;;;;22.35;63.42;99747.22;10367269;28;20091;-76
2022/08/19 05:15:57;;;;;;;8.80;8.10;;;;;;;22.15;64.33;99730.97;10377118;28;20481;-77
2022/08/19 05:26:28;;;;;;;9.73;8.73;;;;;;;22.41;63.96;99746.38;10396939;28;20886;-75
2022/08/19 05:31:30;;;;;;;9.70;8.75;;;;;;;22.59;64.06;99742.97;10388602;28;20463;-75
2022/08/19 05:36:43;;;;;;;9.57;8.57;;;;;;;22.60;63.88;99750.03;10393394;28;20051;-75
2022/08/19 05:41:47;;;;;;;8.70;8.00;;;;;;;22.64;63.85;99755.88;10395260;28;20150;-76
2022/08/19 05:46:48;;;;;;;10.30;8.27;;;;;;;22.61;63.05;99756.31;10401769;28;20060;-76
2022/08/19 05:51:50;;;;;;;9.00;8.20;;;;;;;22.49;64.53;99758.84;10425794;28;20175;-74
2022/08/19 05:56:52;;;;;;;9.20;8.40;;;;;;;22.40;63.49;99760.13;10395768;28;20048;-76
2022/08/19 06:01:54;;;;;;;9.17;8.27;;;;;;;22.41;63.54;99768.06;10402142;28;21359;-75
2022/08/19 06:06:56;;;;;;;10.95;8.43;;;;;;;22.35;65.29;99768.91;10385578;28;21451;-73
2022/08/19 06:11:59;;;;;;;8.50;7.80;;;;;;;22.54;63.89;99772.59;10378116;28;20060;-74
2022/08/19 06:17:01;;;;;;;;;;;;;;;22.66;64.05;99782.78;10384465;28;20128;-73
2022/08/19 06:22:08;;;;;;;9.65;7.97;;;;;;;22.83;63.56;99797.53;10407732;28;20075;-75
2022/08/19 06:27:09;;;;;;;7.72;6.95;;;;;;;22.94;62.93;99805.00;10409315;28;20869;-74
2022/08/19 06:32:11;;;;;;;8.80;7.43;;;;;;;22.87;63.79;99806.06;10407265;28;20242;-74
2022/08/19 06:37:12;;;;;;;7.38;6.78;;;;;;;22.99;63.57;99807.06;10397458;28;20501;-72
2022/08/19 06:42:16;;;;;;;8.20;6.93;;;;;;;23.09;62.43;99823.75;10390452;28;20175;-75
2022/08/19 06:47:20;;;;;;;10.45;6.70;;;;;;;23.23;62.43;99838.09;10381878;28;20048;-71
2022/08/19 06:52:24;;;;;;;12.52;7.03;;;;;;;23.34;61.75;99822.16;10394514;28;20151;-73
2022/08/19 06:57:26;;;;;;;9.23;6.82;;;;;;;23.46;61.71;99828.56;10405392;28;20123;-78
2022/08/19 07:02:28;;;;;;;8.65;6.20;;;;;;;23.51;61.01;99842.31;10391250;28;20457;-75
2022/08/19 07:07:30;;;;;;;7.82;6.97;;;;;;;23.57;60.09;99838.72;10398247;28;20048;-76
2022/08/19 07:12:33;;;;;;;6.40;5.67;;;;;;;23.62;60.30;99840.78;10398389;28;20878;-75
2022/08/19 07:17:39;;;;;;;6.57;5.88;;;;;;;23.68;61.09;99847.22;10393362;28;20737;-74
2022/08/19 07:22:42;;;;;;;5.78;5.28;;;;;;;23.72;60.34;99837.56;10383587;28;20529;-74
2022/08/19 07:27:44;;;;;;;6.22;5.32;;;;;;;23.55;59.36;99853.56;10382256;28;20372;-74
2022/08/19 07:32:46;;;;;;;6.10;5.57;;;;;;;23.85;60.37;99842.94;10375243;28;20049;-74
2022/08/19 07:37:52;;;;;;;5.50;5.00;;;;;;;24.16;58.54;99838.50;10375509;28;20816;-75
2022/08/19 07:42:54;;;;;;;6.28;4.20;;;;;;;24.20;56.98;99839.75;10378692;28;20059;-74
2022/08/19 07:47:55;;;;;;;4.65;4.20;;;;;;;24.54;56.36;99848.38;10397024;28;20342;-76
2022/08/19 07:52:57;;;;;;;4.47;4.07;;;;;;;24.56;55.04;99842.72;10394143;28;20064;-78
2022/08/19 07:57:58;;;;;;;4.30;3.95;;;;;;;24.98;55.05;99849.19;10402157;28;20084;-76
2022/08/19 08:02:59;;;;;;;4.53;4.13;;;;;;;25.11;54.40;99852.81;10384546;28;20495;-77
2022/08/19 08:13:28;;;;;;;4.65;3.47;;;;;;;25.63;52.64;99846.88;10400885;28;20052;-75
2022/08/19 08:18:29;;;;;;;3.75;3.33;;;;;;;25.67;51.83;99851.63;10379920;28;20236;-74
2022/08/19 08:23:31;;;;;;;3.88;3.40;;;;;;;25.96;51.08;99845.50;10378689;28;20048;-75
2022/08/19 08:28:33;;;;;;;4.13;3.72;;;;;;;26.13;50.67;99848.41;10379797;28;20187;-75
2022/08/19 08:33:34;;;;;;;3.38;3.08;;;;;;;26.21;50.69;99848.06;10371500;28;20057;-74
2022/08/19 08:38:36;;;;;;;3.97;2.80;;;;;;;25.94;48.24;99853.91;10376489;28;20905;-76
2022/08/19 08:43:45;;;;;;;2.95;2.50;;;;;;;25.73;49.17;99853.44;10371636;28;21297;-75
2022/08/19 08:49:08;;;;;;;4.00;3.08;;;;;;;25.66;50.16;99851.88;10372368;28;21323;-75
2022/08/19 08:54:12;;;;;;;5.15;3.50;;;;;;;25.67;49.78;99857.09;10386620;28;20072;-75
2022/08/19 08:59:32;;;;;;;3.47;2.70;;;;;;;25.71;50.18;99850.09;10395620;28;20629;-75
2022/08/19 09:04:35;;;;;;;3.40;3.13;;;;;;;26.22;49.74;99845.09;10391285;28;20040;-75
2022/08/19 09:09:43;;;;;;;3.42;2.67;;;;;;;26.60;48.43;99838.31;10376299;28;20060;-75
2022/08/19 09:15:07;;;;;;;3.40;3.10;;;;;;;27.17;46.36;99847.69;10392303;28;20049;-75
2022/08/19 09:20:09;;;;;;;5.88;3.30;;;;;;;27.69;44.13;99838.56;10398634;28;20040;-76
2022/08/19 09:25:14;;;;;;;4.57;3.38;;;;;;;27.87;44.25;99838.34;10412912;28;20063;-81
2022/08/19 09:30:23;;;;;;;3.78;3.20;;;;;;;27.76;44.81;99831.06;10408889;28;20057;-79
2022/08/19 09:35:31;;;;;;;4.55;2.80;;;;;;;28.02;43.67;99845.19;10402746;28;20124;-76
2022/08/19 09:40:50;;;;;;;4.85;3.40;;;;;;;27.69;45.06;99844.03;10410644;28;20040;-79
2022/08/19 09:45:52;;;;;;;4.53;4.13;;;;;;;27.41;45.74;99836.72;10407305;28;20447;-80
2022/08/19 09:50:53;;;;;;;5.23;4.43;;;;;;;27.13;46.90;99839.16;10408495;28;20537;-77
2022/08/19 09:55:55;;;;;;;4.32;4.00;;;;;;;27.48;45.94;99838.22;10385219;28;20310;-80
2022/08/19 10:00:59;;;;;;;6.27;4.53;;;;;;;28.01;44.96;99832.56;10404181;28;20685;-79
2022/08/19 10:06:03;;;;;;;5.10;4.50;;;;;;;28.31;44.46;99834.13;10387522;28;20056;-77
2022/08/19 10:11:05;;;;;;;4.78;4.35;;;;;;;28.04;44.75;99832.06;10390427;28;20049;-78
2022/08/19 10:16:26;;;;;;;5.67;4.73;;;;;;;27.67;44.60;99835.28;10384522;28;20072;-80
2022/08/19 10:21:32;;;;;;;4.97;4.40;;;;;;;28.24;44.13;99833.47;10405203;28;20491;-75
2022/08/19 10:26:37;;;;;;;4.75;4.35;;;;;;;28.37;43.05;99833.09;10401364;28;20044;-79
2022/08/19 10:31:38;;;;;;;5.30;4.65;;;;;;;31.17;38.58;99819.72;10385036;28;20049;-79
2022/08/19 10:37:00;;;;;;;6.53;4.13;;;;;;;32.31;34.90;99826.97;10377731;28;24398;-77
2022/08/19 10:42:06;;;;;;;4.68;3.92;;;;;;;31.79;35.79;99814.34;10373163;28;20059;-76
2022/08/19 10:47:11;;;;;;;5.22;4.78;;;;;;;30.54;38.27;99809.56;10399423;28;26071;-80
2022/08/19 10:52:35;;;;;;;6.38;5.78;;;;;;;29.69;40.08;99802.06;10411463;28;20049;-76
2022/08/19 10:57:40;;;;;;;6.28;5.78;;;;;;;29.83;39.28;99805.25;10316872;28;20061;-77
2022/08/19 11:03:04;;;;;;;6.28;5.53;;;;;;;32.02;35.63;99808.28;10270073;28;20056;-77
2022/08/19 11:08:14;;;;;;;6.50;5.90;;;;;;;35.79;30.17;99765.19;10338444;28;20053;-76
2022/08/19 11:13:24;;;;;;;6.40;5.90;;;;;;;34.48;31.26;99788.59;10343610;28;20045;-80
2022/08/19 11:18:26;;;;;;;6.80;6.20;;;;;;;31.25;34.23;99788.94;10339563;28;20798;-75
2022/08/19 11:23:28;;;;;;;5.60;5.10;;;;;;;32.45;32.20;99765.78;10346190;28;20045;-73
2022/08/19 11:28:33;;;;;;;5.93;5.53;;;;;;;36.34;27.75;99724.88;10236754;28;20597;-75
2022/08/19 11:33:34;;;;;;;6.15;5.60;;;;;;;38.83;23.89;99727.44;10293388;28;20623;-76
2022/08/19 11:38:36;;;;;;;6.65;6.05;;;;;;;35.52;27.97;99733.53;10386341;28;24398;-76
2022/08/19 11:43:39;;;;;;;6.43;5.82;;;;;;;36.52;26.96;99736.97;10350606;28;20072;-77
2022/08/19 11:48:44;;;;;;;6.32;5.63;;;;;;;38.45;23.56;99745.53;10379160;28;20140;-79
2022/08/19 11:53:53;;;;;;;6.22;5.63;;;;;;;37.10;25.38;99738.19;10353131;28;20721;-79
2022/08/19 11:58:56;;;;;;;6.15;5.55;;;;;;;35.92;26.72;99736.69;10395515;28;20072;-79
2022/08/19 12:03:58;;;;;;;6.65;6.15;;;;;;;33.46;29.94;99729.69;10380300;28;20057;-78
2022/08/19 12:09:03;;;;;;;6.45;5.95;;;;;;;32.02;33.23;99742.22;10389509;28;20071;-76
2022/08/19 12:14:05;;;;;;;7.07;6.45;;;;;;;31.88;32.89;99725.44;10361448;28;20135;-76
2022/08/19 12:19:07;;;;;;;5.20;4.70;;;;;;;33.24;30.19;99727.38;10376492;28;20077;-81
2022/08/19 12:24:08;;;;;;;7.07;6.25;;;;;;;32.74;29.44;99725.47;10356234;28;20050;-78
2022/08/19 12:29:13;;;;;;;6.70;6.00;;;;;;;31.58;31.42;99722.75;10363396;28;20362;-77
2022/08/19 12:34:20;;;;;;;7.57;6.93;;;;;;;30.94;33.58;99736.66;10375416;28;20791;-78
2022/08/19 12:39:24;;;;;;;7.18;6.57;;;;;;;32.22;31.10;99713.00;10370392;28;20255;-78
2022/08/19 12:44:25;;;;;;;6.55;6.15;;;;;;;31.95;30.11;99710.56;10384492;28;20706;-76
2022/08/19 12:49:31;;;;;;;6.63;6.20;;;;;;;31.75;31.62;99715.00;10374343;28;20051;-78
2022/08/19 12:54:55;;;;;;;6.10;5.60;;;;;;;32.13;30.20;99701.75;10380004;28;20057;-78
2022/08/19 12:59:56;;;;;;;6.72;6.10;;;;;;;32.41;30.63;99700.25;10385518;28;20049;-77
2022/08/19 13:04:58;;;;;;;6.72;6.22;;;;;;;31.83;30.71;99713.63;10390202;28;20135;-77
2022/08/19 13:09:59;;;;;;;;;;;;;;;30.21;32.44;99714.69;10390709;28;20208;-76
2022/08/19 13:15:01;;;;;;;6.60;6.05;;;;;;;29.61;33.71;99710.16;10379426;28;19928;-76
2022/08/19 13:20:03;;;;;;;;;;;;;;;29.67;33.99;99716.50;10407793;28;20234;-75
2022/08/19 13:25:06;;;;;;;;;;;;;;;29.70;33.73;99726.13;10405994;28;20245;-76
2022/08/19 13:35:30;;;;;;;5.40;5.00;;;;;;;30.76;31.25;99727.00;10411776;28;20044;-78
2022/08/19 13:40:36;;;;;;;5.55;5.15;;;;;;;30.91;32.08;99734.44;10394273;28;20056;-77
2022/08/19 13:45:39;;;;;;;5.05;4.55;;;;;;;30.82;31.82;99730.56;10404781;28;20122;-75
2022/08/19 13:50:44;;;;;;;5.15;4.30;;;;;;;30.44;32.25;99738.94;10412592;28;20063;-76
2022/08/19 13:55:46;;;;;;;5.75;4.47;;;;;;;29.85;33.14;99729.00;10393177;28;20116;-76
2022/08/19 14:00:48;;;;;;;5.32;4.45;;;;;;;29.64;33.27;99729.94;10389890;28;20053;-77
2022/08/19 14:05:49;;;;;;;6.00;4.38;;;;;;;29.40;33.36;99727.53;10405744;28;20049;-77
2022/08/19 14:10:51;;;;;;;5.13;4.22;;;;;;;29.73;33.39;99736.56;10404178;28;20057;-76
2022/08/19 14:15:53;;;;;;;4.40;4.00;;;;;;;30.05;32.17;99746.69;10407403;28;20048;-77
2022/08/19 14:20:55;;;;;;;4.47;3.90;;;;;;;30.24;32.38;99747.06;10395645;28;20302;-77
2022/08/19 14:26:04;;;;;;;4.15;3.40;;;;;;;30.42;32.51;99743.06;10378387;28;20292;-77
2022/08/19 14:31:05;;;;;;;2.92;2.72;;;;;;;30.41;31.80;99742.22;10389726;28;20045;-77
2022/08/19 14:36:07;;;;;;;3.50;3.20;;;;;;;30.12;32.04;99717.91;10402042;28;20402;-76
2022/08/19 14:41:12;;;;;;;3.20;2.90;;;;;;;30.19;32.26;99714.94;10401913;28;20423;-77
2022/08/19 14:46:15;;;;;;;3.58;3.10;;;;;;;30.14;32.14;99692.94;10400656;28;20508;-75
2022/08/19 14:51:18;;;;;;;3.10;2.90;;;;;;;30.19;32.95;99683.91;10379678;28;20053;-78
2022/08/19 14:56:24;;;;;;;3.10;2.80;;;;;;;30.19;32.20;99687.50;10383896;28;20040;-75
2022/08/19 15:01:26;;;;;;;3.03;2.83;;;;;;;30.13;32.14;99672.06;10395879;28;20046;-78
2022/08/19 15:06:28;;;;;;;;;;;;;;;30.15;31.93;99667.97;10398337;28;20350;-76
2022/08/19 15:11:32;;;;;;;3.03;2.83;;;;;;;29.84;31.85;99667.00;10387965;28;19929;-76
2022/08/19 15:16:33;;;;;;;3.15;2.85;;;;;;;29.68;31.45;99673.44;10380922;28;20055;-75
2022/08/19 15:21:36;;;;;;;3.43;2.80;;;;;;;29.50;31.37;99675.53;10380513;28;20053;-76
2022/08/19 15:26:37;;;;;;;4.13;3.40;;;;;;;29.30;31.73;99672.63;10383024;28;20051;-74
2022/08/19 15:31:39;;;;;;;3.00;2.80;;;;;;;29.54;32.47;99684.88;10402831;28;20048;-76
2022/08/19 15:36:41;;;;;;;3.17;2.92;;;;;;;29.67;32.15;99688.25;10407311;28;20053;-76
2022/08/19 15:41:43;;;;;;;3.10;2.87;;;;;;;29.72;31.61;99683.63;10396523;28;20061;-76
2022/08/19 15:46:46;;;;;;;4.10;3.03;;;;;;;29.54;31.12;99682.13;10394528;28;20059;-77
2022/08/19 15:51:50;;;;;;;3.65;3.35;;;;;;;29.39;31.40;99682.84;10385568;28;20535;-76
2022/08/19 16:07:32;;;;;;;3.30;3.00;;;;;;;29.36;31.99;99682.53;10400415;28;20151;-75
2022/08/19 16:12:34;;;;;;;2.77;2.57;;;;;;;29.27;31.26;99691.25;10380644;28;20056;-75
2022/08/19 16:17:35;;;;;;;3.33;3.03;;;;;;;29.16;31.28;99674.97;10374024;28;20466;-76
2022/08/19 16:22:38;;;;;;;2.60;2.40;;;;;;;29.15;31.43;99687.81;10387830;28;20059;-74
2022/08/19 16:27:40;;;;;;;2.72;2.53;;;;;;;29.04;31.82;99688.81;10380442;28;20293;-76
2022/08/19 16:33:01;;;;;;;3.63;3.33;;;;;;;28.96;32.24;99686.53;10399797;28;20056;-73
2022/08/19 16:38:03;;;;;;;4.07;2.83;;;;;;;29.02;31.96;99700.03;10405874;28;20155;-76
2022/08/19 16:43:07;;;;;;;3.00;2.80;;;;;;;28.93;31.83;99698.88;10395570;28;20045;-76
2022/08/19 16:48:08;;;;;;;3.85;3.53;;;;;;;28.86;32.10;99704.53;10404188;28;20282;-75
2022/08/19 16:53:12;;;;;;;4.20;3.33;;;;;;;28.82;31.87;99708.03;10414013;28;20059;-77
2022/08/19 16:58:13;;;;;;;;;;;;;;;28.72;32.27;99712.31;10412392;28;20059;-76
2022/08/19 17:03:16;;;;;;;3.40;3.20;;;;;;;28.71;32.03;99732.56;10389683;28;19924;-74
2022/08/19 17:08:20;;;;;;;3.58;3.28;;;;;;;28.60;32.50;99727.22;10393445;28;20886;-77
2022/08/19 17:13:28;;;;;;;5.47;3.58;;;;;;;28.56;32.72;99729.63;10383631;28;20064;-74
2022/08/19 17:18:31;;;;;;;3.80;3.50;;;;;;;28.39;32.45;99729.69;10388669;28;20562;-77
2022/08/19 17:23:32;;;;;;;4.07;3.78;;;;;;;28.36;32.64;99724.75;10366053;28;20063;-75
2022/08/19 17:28:48;;;;;;;3.75;3.45;;;;;;;28.35;32.38;99728.56;10387099;28;20049;-76
2022/08/19 17:33:51;;;;;;;3.78;3.55;;;;;;;28.26;32.83;99730.06;10390130;28;20045;-77
2022/08/19 17:38:57;;;;;;;4.35;3.85;;;;;;;28.20;32.39;99727.25;10392288;28;20052;-78
2022/08/19 17:44:00;;;;;;;3.63;3.33;;;;;;;28.13;32.86;99729.34;10390681;28;20436;-76
2022/08/19 17:49:01;;;;;;;;;;;;;;;28.13;32.98;99726.59;10392708;28;20049;-77
2022/08/19 17:54:05;;;;;;;4.97;3.88;;;;;;;28.07;32.66;99730.34;10397839;28;20465;-76
2022/08/19 17:59:07;;;;;;;3.60;3.30;;;;;;;28.02;33.11;99735.75;10394723;28;20059;-78
2022/08/19 18:04:15;;;;;;;4.78;4.28;;;;;;;27.94;33.21;99741.63;10395699;28;20064;-77
2022/08/19 18:09:17;;;;;;;5.97;4.68;;;;;;;27.77;34.05;99745.19;10391013;28;20136;-76
2022/08/19 18:14:25;;;;;;;5.25;4.75;;;;;;;27.70;34.34;99755.50;10386309;28;20053;-76
2022/08/19 18:19:35;;;;;;;6.38;4.97;;;;;;;27.50;34.82;99766.91;10388699;28;20060;-76
2022/08/19 18:24:42;;;;;;;5.45;4.90;;;;;;;27.33;34.91;99764.16;10391353;28;20640;-75
2022/08/19 18:29:46;;;;;;;5.35;4.82;;;;;;;27.21;35.66;99766.91;10376668;28;20068;-75
2022/08/19 18:34:48;;;;;;;5.03;4.30;;;;;;;27.19;35.71;99773.69;10386788;28;20060;-75
2022/08/19 18:50:31;;;;;;;5.57;5.18;;;;;;;26.77;36.17;99786.56;10391529;28;20052;-75
2022/08/19 18:55:33;;;;;;;5.43;4.93;;;;;;;26.79;36.45;99806.25;10373486;28;20053;-75
2022/08/19 19:00:35;;;;;;;6.60;5.30;;;;;;;26.74;36.38;99808.88;10386787;28;20744;-75
2022/08/19 19:05:38;;;;;;;5.32;4.93;;;;;;;26.66;36.45;99817.41;10387954;28;20689;-74
2022/08/19 19:10:41;;;;;;;5.78;5.25;;;;;;;26.60;37.16;99823.81;10377360;28;20110;-74
2022/08/19 19:15:42;;;;;;;5.40;4.85;;;;;;;26.59;37.29;99827.66;10374819;28;20742;-75
2022/08/19 19:20:44;;;;;;;5.88;5.45;;;;;;;26.55;37.65;99831.91;10363883;28;20049;-77
2022/08/19 19:25:46;;;;;;;5.97;5.40;;;;;;;26.38;37.37;99846.28;10383184;28;20513;-73
2022/08/19 19:30:52;;;;;;;5.70;5.20;;;;;;;26.38;37.70;99865.38;10388925;28;20049;-76
2022/08/19 19:35:53;;;;;;;5.95;4.80;;;;;;;26.25;37.68;99865.63;10373123;28;20048;-76
2022/08/19 19:40:55;;;;;;;5.05;4.65;;;;;;;26.12;37.59;99861.22;10388254;28;20155;-75
2022/08/19 19:45:56;;;;;;;5.75;5.25;;;;;;;26.07;37.88;99881.00;10392576;28;20049;-74
2022/08/19 19:50:58;;;;;;;6.68;5.60;;;;;;;25.93;38.05;99879.53;10390553;28;20147;-75
2022/08/19 19:56:03;;;;;;;5.97;4.90;;;;;;;25.78;38.53;99877.25;10374913;28;20134;-75
2022/08/19 20:01:11;;;;;;;5.90;5.30;;;;;;;25.76;38.71;99887.53;10391516;28;20048;-74
2022/08/19 20:06:21;;;;;;;5.55;5.05;;;;;;;25.67;39.51;99892.53;10392787;28;20687;-77
2022/08/19 20:11:30;;;;;;;5.68;5.18;;;;;;;25.59;39.55;99892.81;10384793;28;20686;-77
2022/08/19 20:16:32;;;;;;;5.85;5.28;;;;;;;25.55;40.09;99894.34;10383690;28;20124;-74
2022/08/19 20:21:35;;;;;;;5.30;4.90;;;;;;;25.51;39.92;99904.88;10377264;28;20120;-77
2022/08/19 20:26:36;;;;;;;;;;;;;;;25.51;41.59;99904.06;10395482;28;20136;-76
2022/08/19 20:31:37;;;;;;;5.35;4.85;;;;;;;25.43;41.86;99907.09;10390981;28;20308;-77
2022/08/19 20:36:57;;;;;;;7.70;5.80;;;;;;;25.29;40.99;99915.41;10386660;28;21075;-76
2022/08/19 20:41:59;;;;;;;5.35;4.85;;;;;;;25.14;40.77;99912.25;10374168;28;20467;-78
2022/08/19 20:47:01;;;;;;;5.60;5.10;;;;;;;25.14;43.06;99915.78;10398561;28;20053;-77
2022/08/19 20:52:05;;;;;;;5.93;5.38;;;;;;;25.11;42.25;99918.97;10378976;28;20049;-76
2022/08/19 20:57:07;;;;;;;5.30;4.78;;;;;;;25.05;41.57;99911.72;10398041;28;22738;-78
2022/08/19 21:02:09;;;;;;;5.30;4.80;;;;;;;24.96;42.08;99910.34;10380595;28;20061;-76
2022/08/19 21:07:11;;;;;;;6.80;4.82;;;;;;;24.85;42.29;99906.50;10374511;28;20064;-76
2022/08/19 21:12:13;;;;;;;5.43;4.45;;;;;;;24.90;42.53;99928.41;10385793;28;20902;-77
2022/08/19 21:17:14;;;;;;;4.38;3.88;;;;;;;24.74;42.35;99923.56;10393030;28;20132;-78
2022/08/19 21:22:15;;;;;;;6.40;4.22;;;;;;;24.67;42.09;99929.91;10396104;28;20078;-78
2022/08/19 21:27:17;;;;;;;4.47;4.07;;;;;;;24.67;42.33;99926.38;10397391;28;20144;-77
2022/08/19 21:32:18;;;;;;;4.28;3.88;;;;;;;24.63;43.01;99925.16;10407257;28;20105;-75
2022/08/19 21:37:20;;;;;;;4.70;4.28;;;;;;;24.62;43.64;99918.88;10410225;28;20041;-76
2022/08/19 21:42:26;;;;;;;5.15;4.60;;;;;;;24.51;44.26;99919.56;10392826;28;20059;-78
2022/08/19 21:47:27;;;;;;;5.03;4.63;;;;;;;24.53;44.84;99931.91;10393798;28;20436;-75
2022/08/19 21:52:29;;;;;;;6.18;4.07;;;;;;;24.29;44.04;99933.56;10389040;28;20546;-79
2022/08/19 21:57:30;;;;;;;5.28;3.83;;;;;;;24.19;44.73;99930.50;10396216;28;20079;-74
2022/08/19 22:02:32;;;;;;;4.82;3.63;;;;;;;24.19;44.88;99922.34;10397232;28;20092;-76
2022/08/19 22:07:35;;;;;;;6.05;3.72;;;;;;;24.07;45.25;99929.56;10419871;28;20055;-78
2022/08/19 22:12:41;;;;;;;7.25;3.63;;;;;;;24.03;45.38;99921.00;10394820;28;20054;-75
2022/08/19 22:17:52;;;;;;;8.82;3.67;;;;;;;24.02;46.45;99929.38;10394685;28;20041;-75
2022/08/19 22:22:57;;;;;;;8.27;3.55;;;;;;;24.02;47.64;99932.09;10392365;28;20057;-77
2022/08/19 22:28:00;;;;;;;5.88;3.45;;;;;;;23.98;47.06;99927.09;10389633;28;20042;-78
2022/08/19 22:33:05;;;;;;;3.95;3.30;;;;;;;23.91;46.88;99934.47;10375463;28;20095;-77
2022/08/19 22:38:09;;;;;;;6.20;3.30;;;;;;;23.74;47.81;99941.44;10378520;28;20052;-77
2022/08/19 22:43:13;;;;;;;;;;;;;;;23.77;48.82;99946.44;10390742;28;20088;-78
2022/08/19 22:48:18;;;;;;;4.32;2.95;;;;;;;23.81;48.36;99943.06;10390629;28;20078;-76
2022/08/19 22:53:19;;;;;;;3.47;2.45;;;;;;;23.86;48.73;99947.06;10385729;28;20662;-79
2022/08/19 22:58:21;;;;;;;3.10;2.35;;;;;;;23.69;49.70;99936.69;10392374;28;20080;-80
2022/08/19 23:03:28;;;;;;;3.10;2.85;;;;;;;23.77;50.93;99938.28;10388774;28;20192;-77
2022/08/19 23:08:30;;;;;;;3.75;3.33;;;;;;;23.81;49.82;99934.09;10387883;28;20045;-78
2022/08/19 23:13:32;;;;;;;2.97;2.67;;;;;;;23.77;51.74;99941.00;10385953;28;24911;-76
2022/08/19 23:18:33;;;;;;;3.35;2.78;;;;;;;23.57;50.70;99930.25;10380568;28;20068;-79
2022/08/19 23:23:36;;;;;;;5.15;2.63;;;;;;;23.48;51.27;99940.53;10385361;28;20076;-78
2022/08/19 23:33:59;;;;;;;2.97;2.30;;;;;;;23.58;52.70;99943.59;10390177;28;20696;-79
2022/08/19 23:39:01;;;;;;;3.15;2.35;;;;;;;23.49;51.77;99936.75;10384328;28;20053;-77
2022/08/19 23:44:02;;;;;;;3.75;2.67;;;;;;;23.30;52.38;99936.63;10374328;28;20048;-78
2022/08/19 23:49:05;;;;;;;4.45;2.55;;;;;;;23.34;53.52;99949.78;10386623;28;20052;-78
2022/08/19 23:54:06;;;;;;;4.85;3.08;;;;;;;23.44;53.02;99961.84;10388520;28;20053;-79
2022/08/19 23:59:07;;;;;;;4.38;2.40;;;;;;;23.50;55.04;99956.63;10391230;28;20052;-75
